createdAt,value
2023-02-08T00:01:56.056Z,23.80
2023-02-08T00:04:26.297Z,23.80
2023-02-08T00:06:56.499Z,23.80
2023-02-08T00:09:26.719Z,23.80
2023-02-08T00:11:56.898Z,23.80
2023-02-08T00:14:27.291Z,23.80
2023-02-08T00:16:57.549Z,23.80
2023-02-08T00:19:27.784Z,23.80
2023-02-08T00:21:58.104Z,23.80
2023-02-08T00:24:28.399Z,23.80
2023-02-08T00:26:58.638Z,23.80
2023-02-08T00:29:28.812Z,23.80
2023-02-08T00:31:59.503Z,23.80
2023-02-08T00:34:29.830Z,23.80
2023-02-08T00:37:00.003Z,23.80
2023-02-08T00:39:30.311Z,23.80
2023-02-08T00:42:00.638Z,23.80
2023-02-08T00:44:30.966Z,23.80
2023-02-08T00:47:01.222Z,23.80
2023-02-08T00:49:31.563Z,23.70
2023-02-08T00:52:01.786Z,23.70
2023-02-08T00:54:32.159Z,23.70
2023-02-08T00:57:02.447Z,23.70
2023-02-08T00:59:32.724Z,23.70
2023-02-08T01:02:03.074Z,23.70
2023-02-08T01:04:33.516Z,23.70
2023-02-08T01:07:03.750Z,23.70
2023-02-08T01:09:34.250Z,23.70
2023-02-08T01:12:04.563Z,23.70
2023-02-08T01:14:34.873Z,23.70
2023-02-08T01:17:05.180Z,23.70
2023-02-08T01:19:35.540Z,23.70
2023-02-08T01:22:06.067Z,23.60
2023-02-08T01:24:36.677Z,23.70
2023-02-08T01:27:07.013Z,23.70
2023-02-08T01:29:37.376Z,23.60
2023-02-08T01:32:07.771Z,23.60
2023-02-08T01:34:38.094Z,23.60
2023-02-08T01:37:08.877Z,23.60
2023-02-08T01:39:39.309Z,23.60
2023-02-08T01:42:12.676Z,23.60
2023-02-08T01:45:03.901Z,23.60
2023-02-08T01:47:34.283Z,23.70
2023-02-08T01:50:04.492Z,23.60
2023-02-08T01:52:35.029Z,23.60
2023-02-08T01:55:26.025Z,23.60
2023-02-08T01:57:59.760Z,23.60
2023-02-08T02:00:30.786Z,23.60
2023-02-08T02:03:02.855Z,23.60
2023-02-08T02:05:37.204Z,23.60
2023-02-08T02:08:08.628Z,23.60
2023-02-08T02:10:40.800Z,23.60
2023-02-08T02:13:19.885Z,23.60
2023-02-08T02:15:50.760Z,23.60
2023-02-08T02:18:31.261Z,23.60
2023-02-08T02:21:01.404Z,23.60
2023-02-08T02:23:34.655Z,23.60
2023-02-08T02:26:13.453Z,23.60
2023-02-08T02:28:43.928Z,23.60
2023-02-08T02:31:44.527Z,23.60
2023-02-08T02:34:33.192Z,23.60
2023-02-08T02:37:09.472Z,23.60
2023-02-08T02:40:09.401Z,23.50
2023-02-08T02:43:20.547Z,23.60
2023-02-08T02:46:27.506Z,23.60
2023-02-08T02:49:21.644Z,23.60
2023-02-08T02:52:07.165Z,23.50
2023-02-08T02:54:48.531Z,23.50
2023-02-08T02:57:26.691Z,23.50
2023-02-08T02:59:57.087Z,23.50
2023-02-08T03:02:29.444Z,23.50
2023-02-08T03:05:00.235Z,23.50
2023-02-08T03:07:59.997Z,23.50
2023-02-08T03:10:42.359Z,23.50
2023-02-08T03:13:34.975Z,23.50
2023-02-08T03:16:41.931Z,23.50
2023-02-08T03:19:20.791Z,23.50
2023-02-08T03:22:19.298Z,23.50
2023-02-08T03:24:55.176Z,23.50
2023-02-08T03:27:36.569Z,23.50
2023-02-08T03:30:26.856Z,23.50
2023-02-08T03:33:03.010Z,23.50
2023-02-08T03:35:50.009Z,23.60
2023-02-08T03:38:33.098Z,23.50
2023-02-08T03:41:06.512Z,23.50
2023-02-08T03:43:44.823Z,23.60
2023-02-08T03:46:44.246Z,23.50
2023-02-08T03:49:22.932Z,23.60
2023-02-08T03:51:54.921Z,23.50
2023-02-08T03:54:30.231Z,23.50
2023-02-08T03:57:05.771Z,23.60
2023-02-08T03:59:40.677Z,23.60
2023-02-08T04:02:15.546Z,23.60
2023-02-08T04:04:50.084Z,23.60
2023-02-08T04:07:21.635Z,23.60
2023-02-08T04:09:51.984Z,23.60
2023-02-08T04:12:24.971Z,23.70
2023-02-08T04:14:55.268Z,23.70
2023-02-08T04:17:25.531Z,23.70
2023-02-08T04:19:55.706Z,23.70
2023-02-08T04:22:26.007Z,23.70
2023-02-08T04:24:56.234Z,23.80
2023-02-08T04:27:26.472Z,23.80
2023-02-08T04:29:56.728Z,23.80
2023-02-08T04:32:27.101Z,23.80
2023-02-08T04:34:57.334Z,23.80
2023-02-08T04:37:28.041Z,23.80
2023-02-08T04:39:58.331Z,23.80
2023-02-08T04:42:28.776Z,23.80
2023-02-08T04:44:59.131Z,23.80
2023-02-08T04:47:29.535Z,23.80
2023-02-08T04:49:59.799Z,23.90
2023-02-08T04:52:30.352Z,23.90
2023-02-08T04:55:00.633Z,23.90
2023-02-08T04:57:30.954Z,23.90
2023-02-08T05:00:01.226Z,23.90
2023-02-08T05:02:31.675Z,23.90
2023-02-08T05:05:01.901Z,23.90
2023-02-08T05:07:32.221Z,23.90
2023-02-08T05:10:02.457Z,23.90
2023-02-08T05:12:32.882Z,23.90
2023-02-08T05:15:03.079Z,23.90
2023-02-08T05:17:33.432Z,23.90
2023-02-08T05:20:03.623Z,23.90
2023-02-08T05:22:35.378Z,23.90
2023-02-08T05:25:06.214Z,24.00
2023-02-08T05:27:37.822Z,24.00
2023-02-08T05:30:09.035Z,24.00
2023-02-08T05:32:39.425Z,24.00
2023-02-08T05:35:10.122Z,24.00
2023-02-08T05:37:40.446Z,24.00
2023-02-08T05:40:11.322Z,24.10
2023-02-08T05:42:43.911Z,24.10
2023-02-08T05:45:14.163Z,24.10
2023-02-08T05:47:45.011Z,24.10
2023-02-08T05:50:15.726Z,24.10
2023-02-08T05:52:46.069Z,24.10
2023-02-08T05:55:16.294Z,24.10
2023-02-08T05:57:46.601Z,24.10
2023-02-08T06:00:17.548Z,24.20
2023-02-08T06:02:47.929Z,24.20
2023-02-08T06:05:18.463Z,24.20
2023-02-08T06:07:48.824Z,24.20
2023-02-08T06:10:19.098Z,24.20
2023-02-08T06:12:49.419Z,24.20
2023-02-08T06:15:19.710Z,24.20
2023-02-08T06:17:50.303Z,24.20
2023-02-08T06:20:20.696Z,24.20
2023-02-08T06:22:50.922Z,24.30
2023-02-08T06:25:21.863Z,24.30
2023-02-08T06:27:52.299Z,24.30
2023-02-08T06:30:22.721Z,24.30
2023-02-08T06:32:53.026Z,24.30
2023-02-08T06:35:23.439Z,24.30
2023-02-08T06:37:54.181Z,24.30
2023-02-08T06:40:24.510Z,24.30
2023-02-08T06:42:54.917Z,24.30
2023-02-08T06:45:25.257Z,24.30
2023-02-08T06:47:55.990Z,24.30
2023-02-08T06:50:26.351Z,24.30
2023-02-08T06:52:56.847Z,24.30
2023-02-08T06:55:27.211Z,24.30
2023-02-08T06:57:58.186Z,24.40
2023-02-08T07:00:28.852Z,24.40
2023-02-08T07:03:00.806Z,24.30
2023-02-08T07:05:31.193Z,24.40
2023-02-08T07:08:01.421Z,24.30
2023-02-08T07:10:31.666Z,24.30
2023-02-08T07:13:03.804Z,24.40
2023-02-08T07:15:34.865Z,24.40
2023-02-08T07:18:05.234Z,24.40
2023-02-08T07:20:35.426Z,24.40
2023-02-08T07:23:05.736Z,24.40
2023-02-08T07:25:36.026Z,24.40
2023-02-08T07:28:06.356Z,24.40
2023-02-08T07:30:36.724Z,24.40
2023-02-08T07:33:07.010Z,24.40
2023-02-08T07:35:37.372Z,24.40
2023-02-08T07:38:07.834Z,24.40
2023-02-08T07:40:38.467Z,24.40
2023-02-08T07:43:08.960Z,24.40
2023-02-08T07:45:42.328Z,24.50
2023-02-08T07:48:12.522Z,24.40
2023-02-08T07:50:42.771Z,24.50
2023-02-08T07:53:13.050Z,24.50
2023-02-08T07:55:43.313Z,24.50
2023-02-08T07:58:13.575Z,24.50
2023-02-08T08:00:43.937Z,24.50
2023-02-08T08:03:14.156Z,24.50
2023-02-08T08:05:45.062Z,24.50
2023-02-08T08:08:16.083Z,24.50
2023-02-08T08:10:46.806Z,24.50
2023-02-08T08:13:17.171Z,24.50
2023-02-08T08:15:47.399Z,24.50
2023-02-08T08:18:17.950Z,24.50
2023-02-08T08:20:48.251Z,24.50
2023-02-08T08:23:18.527Z,24.50
2023-02-08T08:25:48.816Z,24.50
2023-02-08T08:28:19.632Z,24.50
2023-02-08T08:30:50.449Z,24.50
2023-02-08T08:33:20.802Z,24.50
2023-02-08T08:35:51.095Z,24.50
2023-02-08T08:38:29.787Z,24.50
2023-02-08T08:40:59.988Z,24.50
2023-02-08T08:43:30.178Z,24.40
2023-02-08T08:46:00.480Z,24.50
2023-02-08T08:48:30.768Z,24.50
2023-02-08T08:51:00.964Z,24.40
2023-02-08T08:53:31.273Z,24.40
2023-02-08T08:56:01.572Z,24.40
2023-02-08T08:58:32.186Z,24.50
2023-02-08T09:01:02.886Z,24.40
2023-02-08T09:03:33.259Z,24.40
2023-02-08T09:06:03.532Z,24.40
2023-02-08T09:08:33.771Z,24.40
2023-02-08T09:11:12.883Z,24.40
2023-02-08T09:13:43.779Z,24.40
2023-02-08T09:16:19.804Z,24.40
2023-02-08T09:18:50.050Z,24.40
2023-02-08T09:21:23.192Z,24.40
2023-02-08T09:23:53.635Z,24.40
2023-02-08T09:26:25.222Z,24.40
2023-02-08T09:28:55.776Z,24.40
2023-02-08T09:31:35.573Z,24.40
2023-02-08T09:34:06.897Z,24.40
2023-02-08T09:36:40.836Z,24.40
2023-02-08T09:39:16.515Z,24.40
2023-02-08T09:42:04.908Z,24.40
2023-02-08T09:45:08.709Z,24.40
2023-02-08T09:47:44.956Z,24.40
2023-02-08T09:50:23.095Z,24.30
2023-02-08T09:53:25.926Z,24.40
2023-02-08T09:56:19.628Z,24.40
2023-02-08T09:58:54.563Z,24.40
2023-02-08T10:01:29.060Z,24.40
2023-02-08T10:04:16.697Z,24.40
2023-02-08T10:06:48.531Z,24.40
2023-02-08T10:09:25.012Z,24.30
2023-02-08T10:12:37.867Z,24.30
2023-02-08T10:15:32.318Z,24.40
2023-02-08T10:18:20.236Z,24.30
2023-02-08T10:21:41.172Z,24.30
2023-02-08T10:24:35.796Z,24.30
2023-02-08T10:27:24.016Z,24.30
2023-02-08T10:30:17.734Z,24.30
2023-02-08T10:33:07.861Z,24.30
2023-02-08T10:35:46.930Z,24.30
2023-02-08T10:38:45.940Z,24.30
2023-02-08T10:41:29.339Z,24.30
2023-02-08T10:44:02.539Z,24.30
2023-02-08T10:46:45.680Z,24.30
2023-02-08T10:49:28.510Z,24.30
2023-02-08T10:51:58.786Z,24.30
2023-02-08T10:54:29.240Z,24.30
2023-02-08T10:57:05.325Z,24.30
2023-02-08T10:59:58.963Z,24.30
2023-02-08T11:02:33.848Z,24.30
2023-02-08T11:05:12.262Z,24.30
2023-02-08T11:07:43.589Z,24.30
2023-02-08T11:10:22.877Z,24.30
2023-02-08T11:13:19.979Z,24.30
2023-02-08T11:16:00.063Z,24.30
2023-02-08T11:18:50.246Z,24.30
2023-02-08T11:21:35.358Z,24.30
2023-02-08T11:24:17.456Z,24.20
2023-02-08T11:26:48.018Z,24.20
2023-02-08T11:29:20.024Z,24.20
2023-02-08T11:32:26.058Z,24.20
2023-02-08T11:35:24.008Z,24.30
2023-02-08T11:38:00.215Z,24.20
2023-02-08T11:40:45.076Z,24.20
2023-02-08T11:43:41.470Z,24.20
2023-02-08T11:46:13.583Z,24.20
2023-02-08T11:48:53.732Z,24.20
2023-02-08T11:51:32.110Z,24.20
2023-02-08T11:54:02.903Z,24.20
2023-02-08T11:56:36.314Z,24.10
2023-02-08T11:59:06.869Z,24.10
2023-02-08T12:01:43.040Z,24.20
2023-02-08T12:04:18.453Z,24.10
2023-02-08T12:06:54.245Z,24.10
2023-02-08T12:09:38.208Z,24.10
2023-02-08T12:12:15.353Z,24.10
2023-02-08T12:15:14.183Z,24.10
2023-02-08T12:18:12.948Z,24.10
2023-02-08T12:20:43.839Z,24.10
2023-02-08T12:23:33.554Z,24.10
2023-02-08T12:26:19.029Z,24.10
2023-02-08T12:29:15.192Z,24.10
2023-02-08T12:32:05.348Z,24.10
2023-02-08T12:34:56.833Z,24.10
2023-02-08T12:37:47.895Z,24.00
2023-02-08T12:40:54.314Z,24.00
2023-02-08T12:43:42.671Z,24.00
2023-02-08T12:46:35.982Z,24.00
2023-02-08T12:49:34.846Z,24.00
2023-02-08T12:52:16.964Z,24.00
2023-02-08T12:55:19.115Z,24.00
2023-02-08T12:57:54.919Z,24.00
2023-02-08T13:00:25.488Z,23.90
2023-02-08T13:03:10.555Z,24.00
2023-02-08T13:06:01.592Z,24.00
2023-02-08T13:08:40.021Z,23.90
2023-02-08T13:11:38.724Z,23.90
2023-02-08T13:14:36.709Z,23.90
2023-02-08T13:17:16.213Z,23.90
2023-02-08T13:20:00.187Z,23.90
2023-02-08T13:22:40.666Z,23.90
2023-02-08T13:25:28.985Z,23.90
2023-02-08T13:28:04.674Z,23.90
2023-02-08T13:30:39.944Z,23.90
2023-02-08T13:33:55.573Z,23.90
2023-02-08T13:36:34.011Z,23.90
2023-02-08T13:39:07.944Z,23.90
2023-02-08T13:41:39.550Z,23.90
2023-02-08T13:44:20.599Z,23.90
2023-02-08T13:46:52.710Z,23.90
2023-02-08T13:49:54.244Z,23.80
2023-02-08T13:52:48.236Z,23.90
2023-02-08T13:55:42.198Z,23.80
2023-02-08T13:58:18.507Z,23.80
2023-02-08T14:01:16.625Z,23.80
2023-02-08T14:04:06.728Z,23.80
2023-02-08T14:06:44.703Z,23.80
2023-02-08T14:09:51.350Z,23.80
2023-02-08T14:12:43.713Z,23.80
2023-02-08T14:15:19.674Z,23.80
2023-02-08T14:17:52.515Z,23.80
2023-02-08T14:20:24.606Z,23.80
2023-02-08T14:23:00.740Z,23.80
2023-02-08T14:25:49.382Z,23.80
2023-02-08T14:28:31.571Z,23.70
2023-02-08T14:31:04.966Z,23.70
2023-02-08T14:33:42.093Z,23.70
2023-02-08T14:36:29.981Z,23.70
2023-02-08T14:39:38.988Z,23.70
2023-02-08T14:42:12.290Z,23.70
2023-02-08T14:44:43.685Z,23.70
2023-02-08T14:47:29.179Z,23.70
2023-02-08T14:50:20.995Z,23.70
2023-02-08T14:53:29.235Z,23.70
2023-02-08T14:56:18.044Z,23.70
2023-02-08T14:58:58.652Z,23.60
2023-02-08T15:01:45.826Z,23.60
2023-02-08T15:04:19.848Z,23.60
2023-02-08T15:07:15.229Z,23.60
2023-02-08T15:09:47.439Z,23.60
2023-02-08T15:12:47.784Z,23.60
2023-02-08T15:15:29.083Z,23.60
2023-02-08T15:17:59.660Z,23.60
2023-02-08T15:20:32.757Z,23.60
2023-02-08T15:23:04.292Z,23.60
2023-02-08T15:25:41.021Z,23.60
2023-02-08T15:28:23.049Z,23.60
2023-02-08T15:31:02.846Z,23.60
2023-02-08T15:33:34.670Z,23.60
2023-02-08T15:36:11.506Z,23.60
2023-02-08T15:38:46.519Z,23.60
2023-02-08T15:41:27.015Z,23.50
2023-02-08T15:44:26.537Z,23.50
2023-02-08T15:46:57.618Z,23.60
2023-02-08T15:49:35.436Z,23.50
2023-02-08T15:52:06.891Z,23.50
2023-02-08T15:54:37.319Z,23.50
2023-02-08T15:57:12.141Z,23.50
2023-02-08T15:59:43.410Z,23.50
2023-02-08T16:02:40.592Z,23.50
2023-02-08T16:05:31.640Z,23.50
2023-02-08T16:08:04.228Z,23.50
2023-02-08T16:10:41.145Z,23.40
2023-02-08T16:13:25.700Z,23.40
2023-02-08T16:16:16.708Z,23.50
2023-02-08T16:18:59.992Z,23.40
2023-02-08T16:21:41.282Z,23.50
2023-02-08T16:24:14.534Z,23.50
2023-02-08T16:26:56.838Z,23.40
2023-02-08T16:29:33.840Z,23.40
2023-02-08T16:32:21.210Z,23.40
2023-02-08T16:34:51.423Z,23.50
2023-02-08T16:37:32.192Z,23.40
2023-02-08T16:40:38.104Z,23.40
2023-02-08T16:43:26.075Z,23.40
2023-02-08T16:46:21.505Z,23.40
2023-02-08T16:48:59.701Z,23.40
2023-02-08T16:51:33.533Z,23.40
2023-02-08T16:54:09.336Z,23.30
2023-02-08T16:56:40.552Z,23.40
2023-02-08T16:59:12.571Z,23.40
2023-02-08T17:01:45.936Z,23.30
2023-02-08T17:04:16.941Z,23.30
2023-02-08T17:06:49.129Z,23.30
2023-02-08T17:09:19.462Z,23.30
2023-02-08T17:11:49.963Z,23.30
2023-02-08T17:14:20.544Z,23.30
2023-02-08T17:16:51.187Z,23.30
2023-02-08T17:19:21.774Z,23.30
2023-02-08T17:21:52.010Z,23.30
2023-02-08T17:24:23.713Z,23.30
2023-02-08T17:26:54.084Z,23.30
2023-02-08T17:29:24.492Z,23.30
2023-02-08T17:31:54.950Z,23.30
2023-02-08T17:34:25.212Z,23.30
2023-02-08T17:36:55.526Z,23.30
2023-02-08T17:39:25.824Z,23.30
2023-02-08T17:41:56.078Z,23.20
2023-02-08T17:44:26.406Z,23.30
2023-02-08T17:46:56.617Z,23.20
2023-02-08T17:49:26.869Z,23.20
2023-02-08T17:51:58.651Z,23.20
2023-02-08T17:54:28.890Z,23.20
2023-02-08T17:57:00.352Z,23.20
2023-02-08T17:59:31.128Z,23.20
2023-02-08T18:02:01.438Z,23.20
2023-02-08T18:04:31.789Z,23.20
2023-02-08T18:07:02.022Z,23.20
2023-02-08T18:09:33.547Z,23.10
2023-02-08T18:12:03.842Z,23.20
2023-02-08T18:14:35.707Z,23.10
2023-02-08T18:17:07.500Z,23.10
2023-02-08T18:19:38.067Z,23.10
2023-02-08T18:22:10.204Z,23.10
2023-02-08T18:24:40.656Z,23.10
2023-02-08T18:27:11.330Z,23.10
2023-02-08T18:29:41.853Z,23.10
2023-02-08T18:32:12.244Z,23.10
2023-02-08T18:34:44.574Z,23.10
2023-02-08T18:37:15.309Z,23.10
2023-02-08T18:39:45.691Z,23.10
2023-02-08T18:42:16.434Z,23.10
2023-02-08T18:44:47.647Z,23.10
2023-02-08T18:47:18.421Z,23.10
2023-02-08T18:49:49.636Z,23.10
2023-02-08T18:52:20.152Z,23.10
2023-02-08T18:54:51.104Z,23.10
2023-02-08T18:57:22.184Z,23.00
2023-02-08T18:59:55.695Z,23.00
2023-02-08T19:02:27.962Z,23.00
2023-02-08T19:04:58.396Z,23.00
2023-02-08T19:07:28.749Z,23.00
2023-02-08T19:09:59.323Z,23.00
2023-02-08T19:12:29.754Z,23.00
2023-02-08T19:15:00.176Z,23.00
2023-02-08T19:17:30.458Z,23.00
2023-02-08T19:20:00.754Z,23.00
2023-02-08T19:22:31.129Z,23.00
2023-02-08T19:25:01.632Z,23.00
2023-02-08T19:27:32.193Z,23.00
2023-02-08T19:30:03.677Z,23.00
2023-02-08T19:32:34.038Z,23.00
2023-02-08T19:35:04.537Z,23.00
2023-02-08T19:37:34.890Z,23.00
2023-02-08T19:40:07.514Z,23.00
2023-02-08T19:42:38.518Z,23.00
2023-02-08T19:45:09.714Z,23.00
2023-02-08T19:47:51.025Z,23.00
2023-02-08T19:50:22.064Z,22.90
2023-02-08T19:52:52.353Z,22.90
2023-02-08T19:55:23.759Z,22.90
2023-02-08T19:57:54.131Z,22.90
2023-02-08T20:00:24.692Z,22.90
2023-02-08T20:02:55.335Z,22.90
2023-02-08T20:05:25.634Z,22.90
2023-02-08T20:07:55.905Z,22.90
2023-02-08T20:10:26.171Z,22.90
2023-02-08T20:12:56.686Z,22.90
2023-02-08T20:15:27.268Z,22.90
2023-02-08T20:17:59.624Z,22.90
2023-02-08T20:20:31.025Z,22.90
2023-02-08T20:23:06.995Z,22.90
2023-02-08T20:25:39.340Z,22.90
2023-02-08T20:28:09.828Z,22.80
2023-02-08T20:30:43.200Z,22.90
2023-02-08T20:33:15.457Z,22.90
2023-02-08T20:35:46.524Z,22.90
2023-02-08T20:38:19.919Z,22.90
2023-02-08T20:40:50.440Z,22.80
2023-02-08T20:43:20.747Z,22.80
2023-02-08T20:45:51.306Z,22.80
2023-02-08T20:48:21.551Z,22.80
2023-02-08T20:50:52.122Z,22.80
2023-02-08T20:53:22.475Z,22.80
2023-02-08T20:55:52.940Z,22.80
2023-02-08T20:58:23.215Z,22.80
2023-02-08T21:00:53.803Z,22.80
2023-02-08T21:03:24.308Z,22.80
2023-02-08T21:05:54.901Z,22.70
2023-02-08T21:08:28.499Z,22.80
2023-02-08T21:10:58.788Z,22.80
2023-02-08T21:13:29.170Z,22.70
2023-02-08T21:15:59.547Z,22.80
2023-02-08T21:18:29.788Z,22.70
2023-02-08T21:21:00.159Z,22.70
2023-02-08T21:23:31.597Z,22.70
2023-02-08T21:26:04.319Z,22.80
2023-02-08T21:28:35.145Z,22.70
2023-02-08T21:31:10.836Z,22.70
2023-02-08T21:33:41.251Z,22.80
2023-02-08T21:36:15.546Z,22.70
2023-02-08T21:38:46.387Z,22.70
2023-02-08T21:41:22.194Z,22.80
2023-02-08T21:43:53.654Z,22.70
2023-02-08T21:46:26.648Z,22.70
2023-02-08T21:49:15.881Z,22.80
2023-02-08T21:52:05.349Z,22.70
2023-02-08T21:54:54.663Z,22.70
2023-02-08T21:57:35.029Z,22.70
2023-02-08T22:00:09.719Z,22.70
2023-02-08T22:02:40.292Z,22.70
2023-02-08T22:05:10.708Z,22.70
2023-02-08T22:08:01.288Z,22.70
2023-02-08T22:10:34.305Z,22.80
2023-02-08T22:13:04.865Z,22.70
2023-02-08T22:15:36.974Z,22.70
2023-02-08T22:18:08.007Z,22.70
2023-02-08T22:20:39.617Z,22.70
2023-02-08T22:23:10.272Z,22.70
2023-02-08T22:25:41.794Z,22.70
2023-02-08T22:28:12.452Z,22.70
2023-02-08T22:30:43.024Z,22.70
2023-02-08T22:33:13.697Z,22.70
2023-02-08T22:35:44.110Z,22.70
2023-02-08T22:38:14.721Z,22.70
2023-02-08T22:40:45.136Z,22.70
2023-02-08T22:43:15.585Z,22.70
2023-02-08T22:45:46.026Z,22.70
2023-02-08T22:48:16.311Z,22.70
2023-02-08T22:50:46.874Z,22.70
2023-02-08T22:53:19.573Z,22.70
2023-02-08T22:55:54.904Z,22.70
2023-02-08T22:58:25.876Z,22.70
2023-02-08T23:00:56.253Z,22.70
2023-02-08T23:03:26.755Z,22.70
2023-02-08T23:05:57.196Z,22.70
2023-02-08T23:08:31.272Z,22.70
2023-02-08T23:11:06.676Z,22.70
2023-02-08T23:13:37.725Z,22.70
2023-02-08T23:16:08.591Z,22.60
2023-02-08T23:18:39.177Z,22.70
2023-02-08T23:21:11.720Z,22.70
2023-02-08T23:23:42.850Z,22.70
2023-02-08T23:26:16.814Z,22.60
2023-02-08T23:28:47.724Z,22.60
2023-02-08T23:31:18.184Z,22.60
2023-02-08T23:33:48.821Z,22.70
2023-02-08T23:36:22.410Z,22.60
2023-02-08T23:38:53.090Z,22.60
2023-02-08T23:41:29.526Z,22.60
2023-02-08T23:43:59.898Z,22.60
2023-02-08T23:46:31.927Z,22.60
2023-02-08T23:49:02.252Z,22.60
2023-02-08T23:51:32.652Z,22.60
2023-02-08T23:54:02.903Z,22.60
2023-02-08T23:56:34.113Z,22.60
2023-02-08T23:59:07.354Z,22.60
